createdAt,value
2022-12-28T00:01:40.367Z,102114.97
2022-12-28T00:04:10.580Z,102116.63
2022-12-28T00:06:40.890Z,102107.44
2022-12-28T00:09:14.758Z,102117.97
2022-12-28T00:11:44.947Z,102110.75
2022-12-28T00:14:15.239Z,102105.16
2022-12-28T00:16:46.959Z,102108.25
2022-12-28T00:19:19.718Z,102113.03
2022-12-28T00:21:50.562Z,102104.91
2022-12-28T00:24:26.420Z,102104.91
2022-12-28T00:26:57.351Z,102099.97
2022-12-28T00:29:27.790Z,102103.88
2022-12-28T00:31:57.615Z,102104.16
2022-12-28T00:34:27.419Z,102097.44
2022-12-28T00:37:10.369Z,102103.34
2022-12-28T00:39:45.103Z,102102.53
2022-12-28T00:42:15.520Z,102102.81
2022-12-28T00:44:45.880Z,102105.63
2022-12-28T00:47:15.953Z,102110.63
2022-12-28T00:49:46.324Z,102107.03
2022-12-28T00:52:16.441Z,102103.41
2022-12-28T00:54:48.585Z,102110.13
2022-12-28T00:57:18.950Z,102102.03
2022-12-28T00:59:49.080Z,102100.69
2022-12-28T01:02:19.352Z,102105.75
2022-12-28T01:04:49.862Z,102105.22
2022-12-28T01:07:20.392Z,102107.50
2022-12-28T01:09:52.711Z,102102.72
2022-12-28T01:12:22.731Z,102105.00
2022-12-28T01:14:53.164Z,102106.44
2022-12-28T01:17:23.706Z,102111.22
2022-12-28T01:19:54.149Z,102100.63
2022-12-28T01:22:24.831Z,102101.75
2022-12-28T01:24:57.402Z,102093.69
2022-12-28T01:27:27.698Z,102094.81
2022-12-28T01:29:58.025Z,102102.34
2022-12-28T01:32:28.588Z,102090.69
2022-12-28T01:34:58.173Z,102084.25
2022-12-28T01:37:28.519Z,102089.84
2022-12-28T01:40:01.036Z,102084.56
2022-12-28T01:42:31.053Z,102082.06
2022-12-28T01:45:18.163Z,102085.16
2022-12-28T01:47:52.308Z,102082.69
2022-12-28T01:50:28.803Z,102087.41
2022-12-28T01:53:04.488Z,102077.38
2022-12-28T01:55:42.259Z,102083.28
2022-12-28T01:58:17.627Z,102078.00
2022-12-28T02:00:47.436Z,102086.38
2022-12-28T02:03:22.735Z,102086.38
2022-12-28T02:05:58.153Z,102091.13
2022-12-28T02:08:38.528Z,102085.84
2022-12-28T02:11:15.424Z,102086.97
2022-12-28T02:13:48.782Z,102095.34
2022-12-28T02:16:19.017Z,102090.09
2022-12-28T02:18:50.758Z,102088.09
2022-12-28T02:21:38.805Z,102088.09
2022-12-28T02:25:12.710Z,102089.53
2022-12-28T02:28:02.869Z,102100.19
2022-12-28T02:30:41.926Z,102097.38
2022-12-28T02:33:26.525Z,102086.22
2022-12-28T02:36:03.758Z,102095.72
2022-12-28T02:38:43.827Z,102093.25
2022-12-28T02:41:20.965Z,102097.16
2022-12-28T02:43:51.368Z,102102.22
2022-12-28T02:46:46.305Z,102089.38
2022-12-28T02:49:39.079Z,102097.22
2022-12-28T02:52:23.253Z,102099.50
2022-12-28T02:55:44.415Z,102095.06
2022-12-28T02:58:38.324Z,102090.88
2022-12-28T03:01:29.672Z,102095.66
2022-12-28T03:04:13.976Z,102103.47
2022-12-28T03:07:11.633Z,102099.03
2022-12-28T03:09:51.197Z,102097.66
2022-12-28T03:12:36.333Z,102093.53
2022-12-28T03:15:14.578Z,102104.97
2022-12-28T03:18:04.496Z,102097.75
2022-12-28T03:20:52.121Z,102100.00
2022-12-28T03:23:43.300Z,102104.75
2022-12-28T03:26:32.278Z,102100.28
2022-12-28T03:29:23.887Z,102100.28
2022-12-28T03:31:54.325Z,102111.44
2022-12-28T03:34:26.758Z,102112.28
2022-12-28T03:37:07.341Z,102107.53
2022-12-28T03:39:47.699Z,102106.72
2022-12-28T03:42:41.042Z,102114.25
2022-12-28T03:45:44.991Z,102112.06
2022-12-28T03:48:16.743Z,102115.13
2022-12-28T03:50:53.185Z,102123.22
2022-12-28T03:53:29.200Z,102127.69
2022-12-28T03:56:11.076Z,102130.16
2022-12-28T03:58:41.162Z,102129.34
2022-12-28T04:01:11.889Z,102131.28
2022-12-28T04:03:42.479Z,102132.13
2022-12-28T04:06:17.118Z,102132.13
2022-12-28T04:08:48.833Z,102136.88
2022-12-28T04:11:19.371Z,102138.00
2022-12-28T04:13:49.635Z,102142.44
2022-12-28T04:16:20.580Z,102143.56
2022-12-28T04:18:50.582Z,102137.72
2022-12-28T04:21:22.536Z,102137.72
2022-12-28T04:23:52.802Z,102142.44
2022-12-28T04:26:23.768Z,102145.25
2022-12-28T04:28:53.840Z,102153.63
2022-12-28T04:31:23.956Z,102155.59
2022-12-28T04:33:54.382Z,102145.56
2022-12-28T04:36:27.012Z,102155.03
2022-12-28T04:38:57.418Z,102161.75
2022-12-28T04:41:27.866Z,102159.50
2022-12-28T04:43:58.724Z,102161.75
2022-12-28T04:46:28.871Z,102165.16
2022-12-28T04:48:58.689Z,102171.03
2022-12-28T04:51:32.410Z,102177.72
2022-12-28T04:54:02.643Z,102174.13
2022-12-28T04:56:33.117Z,102176.59
2022-12-28T04:59:03.737Z,102184.97
2022-12-28T05:01:34.440Z,102178.56
2022-12-28T05:04:05.022Z,102185.53
2022-12-28T05:06:36.464Z,102177.16
2022-12-28T05:09:07.115Z,102174.34
2022-12-28T05:11:36.943Z,102178.28
2022-12-28T05:14:07.212Z,102179.94
2022-12-28T05:16:37.474Z,102187.19
2022-12-28T05:19:07.807Z,102183.28
2022-12-28T05:21:39.857Z,102189.38
2022-12-28T05:24:11.022Z,102193.00
2022-12-28T05:26:41.408Z,102194.69
2022-12-28T05:29:11.952Z,102189.97
2022-12-28T05:31:42.206Z,102195.53
2022-12-28T05:34:12.477Z,102192.75
2022-12-28T05:36:45.196Z,102195.53
2022-12-28T05:39:15.603Z,102196.38
2022-12-28T05:41:45.953Z,102199.69
2022-12-28T05:44:15.887Z,102188.53
2022-12-28T05:46:46.258Z,102203.59
2022-12-28T05:49:16.478Z,102205.84
2022-12-28T05:51:52.141Z,102198.34
2022-12-28T05:54:22.143Z,102203.06
2022-12-28T05:56:54.373Z,102199.97
2022-12-28T05:59:25.256Z,102204.44
2022-12-28T06:01:55.463Z,102209.72
2022-12-28T06:04:26.030Z,102215.00
2022-12-28T06:06:58.127Z,102210.28
2022-12-28T06:09:28.431Z,102214.69
2022-12-28T06:11:58.726Z,102214.41
2022-12-28T06:14:28.703Z,102214.34
2022-12-28T06:16:59.096Z,102212.06
2022-12-28T06:19:29.494Z,102212.16
2022-12-28T06:22:01.712Z,102210.50
2022-12-28T06:24:31.991Z,102207.97
2022-12-28T06:27:02.196Z,102205.66
2022-12-28T06:29:32.659Z,102218.94
2022-12-28T06:32:02.457Z,102214.56
2022-12-28T06:34:32.826Z,102207.72
2022-12-28T06:37:04.664Z,102215.03
2022-12-28T06:39:35.025Z,102209.94
2022-12-28T06:42:05.492Z,102207.69
2022-12-28T06:44:39.279Z,102207.81
2022-12-28T06:47:14.995Z,102209.09
2022-12-28T06:49:44.812Z,102212.94
2022-12-28T06:52:16.325Z,102216.53
2022-12-28T06:54:46.543Z,102214.56
2022-12-28T06:57:16.528Z,102217.81
2022-12-28T06:59:46.473Z,102214.59
2022-12-28T07:02:17.098Z,102210.06
2022-12-28T07:04:47.669Z,102215.06
2022-12-28T07:07:20.185Z,102200.69
2022-12-28T07:09:49.862Z,102212.47
2022-12-28T07:12:20.207Z,102212.28
2022-12-28T07:14:50.486Z,102210.44
2022-12-28T07:17:20.804Z,102214.75
2022-12-28T07:19:51.840Z,102210.03
2022-12-28T07:22:24.145Z,102209.75
2022-12-28T07:24:54.353Z,102214.34
2022-12-28T07:27:24.717Z,102215.22
2022-12-28T07:29:55.161Z,102213.94
2022-12-28T07:32:25.060Z,102215.44
2022-12-28T07:34:55.490Z,102219.31
2022-12-28T07:37:27.719Z,102215.88
2022-12-28T07:39:58.197Z,102216.28
2022-12-28T07:42:28.649Z,102215.97
2022-12-28T07:44:58.768Z,102213.34
2022-12-28T07:47:29.021Z,102218.47
2022-12-28T07:49:59.021Z,102213.31
2022-12-28T07:52:31.091Z,102220.28
2022-12-28T07:55:01.545Z,102202.66
2022-12-28T07:57:31.622Z,102204.44
2022-12-28T08:00:01.897Z,102199.00
2022-12-28T08:02:32.482Z,102195.22
2022-12-28T08:05:02.487Z,102197.84
2022-12-28T08:07:34.649Z,102189.19
2022-12-28T08:10:04.995Z,102190.28
2022-12-28T08:12:35.422Z,102198.66
2022-12-28T08:15:05.894Z,102196.06
2022-12-28T08:17:37.486Z,102193.78
2022-12-28T08:20:09.677Z,102186.06
2022-12-28T08:22:42.009Z,102194.34
2022-12-28T08:25:13.728Z,102187.59
2022-12-28T08:27:43.546Z,102185.44
2022-12-28T08:30:15.144Z,102178.25
2022-12-28T08:32:45.002Z,102177.88
2022-12-28T08:35:15.322Z,102174.69
2022-12-28T08:37:47.477Z,102161.75
2022-12-28T08:40:17.884Z,102161.03
2022-12-28T08:42:48.113Z,102155.31
2022-12-28T08:45:18.553Z,102151.28
2022-12-28T08:47:48.380Z,102147.47
2022-12-28T08:50:20.206Z,102147.47
2022-12-28T08:52:53.837Z,102146.06
2022-12-28T08:55:23.739Z,102140.50
2022-12-28T08:57:54.040Z,102138.91
2022-12-28T09:00:24.397Z,102134.06
2022-12-28T09:02:56.212Z,102135.28
2022-12-28T09:05:26.732Z,102133.56
2022-12-28T09:07:59.826Z,102130.53
2022-12-28T09:10:30.197Z,102128.75
2022-12-28T09:13:00.504Z,102126.25
2022-12-28T09:15:30.281Z,102123.50
2022-12-28T09:18:00.022Z,102124.72
2022-12-28T09:20:30.084Z,102117.41
2022-12-28T09:23:01.853Z,102126.72
2022-12-28T09:25:32.098Z,102122.59
2022-12-28T09:28:01.877Z,102118.47
2022-12-28T09:30:32.361Z,102118.75
2022-12-28T09:33:15.511Z,102112.13
2022-12-28T09:35:46.082Z,102109.97
2022-12-28T09:38:18.984Z,102105.09
2022-12-28T09:40:49.356Z,102098.66
2022-12-28T09:43:20.125Z,102106.13
2022-12-28T09:45:51.206Z,102105.53
2022-12-28T09:48:27.075Z,102098.03
2022-12-28T09:50:58.348Z,102094.13
2022-12-28T09:53:35.544Z,102082.97
2022-12-28T09:56:20.039Z,102084.28
2022-12-28T09:58:50.458Z,102077.94
2022-12-28T10:01:24.372Z,102078.44
2022-12-28T10:03:56.115Z,102076.56
2022-12-28T10:06:32.675Z,102076.66
2022-12-28T10:09:08.404Z,102077.50
2022-12-28T10:11:44.075Z,102074.69
2022-12-28T10:14:23.429Z,102067.84
2022-12-28T10:16:53.939Z,102073.97
2022-12-28T10:19:28.731Z,102074.91
2022-12-28T10:22:04.958Z,102067.72
2022-12-28T10:24:37.654Z,102063.69
2022-12-28T10:27:11.185Z,102061.31
2022-12-28T10:29:41.660Z,102063.44
2022-12-28T10:32:12.981Z,102065.97
2022-12-28T10:35:00.272Z,102057.63
2022-12-28T10:37:34.857Z,102058.88
2022-12-28T10:40:21.231Z,102050.13
2022-12-28T10:42:56.731Z,102053.38
2022-12-28T10:45:37.311Z,102050.31
2022-12-28T10:48:18.442Z,102048.41
2022-12-28T10:50:55.888Z,102054.09
2022-12-28T10:53:43.878Z,102046.53
2022-12-28T10:56:31.797Z,102045.44
2022-12-28T10:59:28.241Z,102039.53
2022-12-28T11:02:24.592Z,102034.06
2022-12-28T11:05:01.237Z,102029.81
2022-12-28T11:07:36.407Z,102032.81
2022-12-28T11:10:30.605Z,102026.91
2022-12-28T11:13:04.453Z,102021.00
2022-12-28T11:15:36.183Z,102022.03
2022-12-28T11:18:20.563Z,102021.91
2022-12-28T11:20:53.559Z,102017.59
2022-12-28T11:23:31.915Z,102021.94
2022-12-28T11:26:03.295Z,102023.78
2022-12-28T11:28:35.572Z,102021.66
2022-12-28T11:31:10.099Z,102020.34
2022-12-28T11:33:46.920Z,102013.75
2022-12-28T11:36:19.892Z,102016.06
2022-12-28T11:38:52.987Z,102020.41
2022-12-28T11:42:27.715Z,102025.50
2022-12-28T11:44:56.731Z,102023.38
2022-12-28T11:47:36.004Z,102010.00
2022-12-28T11:50:54.359Z,102011.47
2022-12-28T11:53:59.333Z,102012.84
2022-12-28T11:57:01.143Z,102014.34
2022-12-28T11:59:33.604Z,102006.91
2022-12-28T12:02:44.221Z,102016.03
2022-12-28T12:05:52.953Z,102011.78
2022-12-28T12:08:44.712Z,102016.41
2022-12-28T12:11:34.303Z,102016.25
2022-12-28T12:14:05.413Z,102020.59
2022-12-28T12:16:51.090Z,102016.13
2022-12-28T12:19:31.079Z,102012.31
2022-12-28T12:22:06.049Z,102020.59
2022-12-28T12:24:48.364Z,102017.16
2022-12-28T12:27:33.246Z,102009.72
2022-12-28T12:30:06.632Z,102022.78
2022-12-28T12:32:46.627Z,102029.94
2022-12-28T12:35:23.529Z,102025.78
2022-12-28T12:37:58.527Z,102023.63
2022-12-28T12:41:02.219Z,102029.91
2022-12-28T12:43:45.927Z,102026.94
2022-12-28T12:47:05.636Z,102032.41
2022-12-28T12:50:40.785Z,102043.00
2022-12-28T12:53:48.534Z,102033.91
2022-12-28T12:56:42.004Z,102033.41
2022-12-28T12:59:53.910Z,102032.94
2022-12-28T13:03:11.560Z,102036.41
2022-12-28T13:05:48.833Z,102046.84
2022-12-28T13:08:28.937Z,102031.16
2022-12-28T13:10:59.273Z,102030.66
2022-12-28T13:13:37.008Z,102036.56
2022-12-28T13:16:12.717Z,102034.44
2022-12-28T13:18:44.934Z,102031.94
2022-12-28T13:21:24.033Z,102029.50
2022-12-28T13:23:56.827Z,102031.78
2022-12-28T13:26:31.346Z,102034.09
2022-12-28T13:29:05.144Z,102032.78
2022-12-28T13:31:38.613Z,102034.78
2022-12-28T13:34:19.929Z,102037.09
2022-12-28T13:36:56.889Z,102025.34
2022-12-28T13:39:31.584Z,102024.03
2022-12-28T13:42:08.346Z,102020.38
2022-12-28T13:44:46.512Z,102031.16
2022-12-28T13:47:24.625Z,102037.09
2022-12-28T13:50:02.331Z,102031.81
2022-12-28T13:52:40.262Z,102034.13
2022-12-28T13:55:19.783Z,102039.22
2022-12-28T13:57:59.757Z,102036.75
2022-12-28T14:00:33.046Z,102040.19
2022-12-28T14:03:04.318Z,102040.53
2022-12-28T14:05:34.733Z,102033.91
2022-12-28T14:08:08.915Z,102040.22
2022-12-28T14:10:41.705Z,102042.53
2022-12-28T14:13:13.624Z,102034.75
2022-12-28T14:15:44.497Z,102038.72
2022-12-28T14:18:18.998Z,102040.19
2022-12-28T14:20:51.302Z,102038.03
2022-12-28T14:23:27.646Z,102047.66
2022-12-28T14:26:01.797Z,102047.16
2022-12-28T14:28:38.591Z,102036.56
2022-12-28T14:31:11.886Z,102044.47
2022-12-28T14:33:54.989Z,102045.63
2022-12-28T14:36:30.797Z,102043.50
2022-12-28T14:41:57.712Z,102035.72
2022-12-28T14:44:34.789Z,102038.88
2022-12-28T14:47:05.488Z,102030.75
2022-12-28T14:49:40.332Z,102033.38
2022-12-28T14:52:39.308Z,102034.88
2022-12-28T14:55:36.755Z,102030.25
2022-12-28T14:58:20.804Z,102027.75
2022-12-28T15:01:02.389Z,102027.28
2022-12-28T15:03:49.643Z,102029.25
2022-12-28T15:06:20.344Z,102032.38
2022-12-28T15:08:54.553Z,102041.97
2022-12-28T15:11:28.287Z,102036.34
2022-12-28T15:14:01.213Z,102045.41
2022-12-28T15:16:31.474Z,102040.13
2022-12-28T15:19:01.321Z,102046.88
2022-12-28T15:21:31.202Z,102045.56
2022-12-28T15:24:02.129Z,102043.91
2022-12-28T15:26:32.241Z,102054.28
2022-12-28T15:29:07.842Z,102050.97
2022-12-28T15:31:38.100Z,102053.59
2022-12-28T15:34:08.422Z,102051.13
2022-12-28T15:36:38.682Z,102058.22
2022-12-28T15:39:08.591Z,102054.91
2022-12-28T15:41:51.769Z,102050.78
2022-12-28T15:44:24.620Z,102062.63
2022-12-28T15:46:55.077Z,102058.50
2022-12-28T15:49:25.476Z,102060.00
2022-12-28T15:51:55.870Z,102059.47
2022-12-28T15:54:25.588Z,102060.13
2022-12-28T15:56:57.285Z,102059.59
2022-12-28T15:59:29.509Z,102064.75
2022-12-28T16:01:59.595Z,102061.41
2022-12-28T16:04:29.762Z,102058.91
2022-12-28T16:07:00.655Z,102064.06
2022-12-28T16:09:31.256Z,102067.16
2022-12-28T16:12:01.499Z,102074.25
2022-12-28T16:14:34.599Z,102073.75
2022-12-28T16:17:04.358Z,102071.25
2022-12-28T16:19:34.608Z,102081.97
2022-12-28T16:22:05.121Z,102081.78
2022-12-28T16:24:36.595Z,102085.75
2022-12-28T16:27:07.326Z,102080.47
2022-12-28T16:29:40.200Z,102076.31
2022-12-28T16:32:10.653Z,102082.25
2022-12-28T16:34:41.120Z,102087.34
2022-12-28T16:37:11.473Z,102092.47
2022-12-28T16:39:41.073Z,102089.16
2022-12-28T16:42:13.320Z,102092.25
2022-12-28T16:44:45.684Z,102096.72
2022-12-28T16:47:16.170Z,102092.59
2022-12-28T16:49:47.644Z,102092.06
2022-12-28T16:52:17.956Z,102098.81
2022-12-28T16:54:48.170Z,102097.16
2022-12-28T16:57:17.943Z,102101.16
2022-12-28T16:59:50.280Z,102096.69
2022-12-28T17:02:21.029Z,102100.09
2022-12-28T17:04:51.017Z,102104.03
2022-12-28T17:07:21.171Z,102099.91
2022-12-28T17:09:51.455Z,102102.19
2022-12-28T17:12:21.585Z,102091.59
2022-12-28T17:14:53.654Z,102100.84
2022-12-28T17:17:24.051Z,102095.06
2022-12-28T17:19:53.928Z,102095.06
2022-12-28T17:22:24.371Z,102108.56
2022-12-28T17:24:54.143Z,102103.25
2022-12-28T17:27:24.367Z,102108.03
2022-12-28T17:29:56.306Z,102108.03
2022-12-28T17:32:26.264Z,102109.53
2022-12-28T17:34:56.714Z,102113.47
2022-12-28T17:37:26.459Z,102117.41
2022-12-28T17:39:57.185Z,102123.03
2022-12-28T17:42:27.527Z,102122.50
2022-12-28T17:44:59.690Z,102122.81
2022-12-28T17:47:29.645Z,102116.38
2022-12-28T17:50:00.560Z,102118.69
2022-12-28T17:52:30.895Z,102113.38
2022-12-28T17:55:01.245Z,102121.28
2022-12-28T17:57:38.279Z,102109.56
2022-12-28T18:00:13.317Z,102109.88
2022-12-28T18:02:44.091Z,102122.22
2022-12-28T18:05:15.260Z,102112.50
2022-12-28T18:07:45.775Z,102117.56
2022-12-28T18:10:15.868Z,102115.09
2022-12-28T18:12:46.384Z,102118.22
2022-12-28T18:15:18.939Z,102122.97
2022-12-28T18:17:49.065Z,102119.66
2022-12-28T18:20:19.176Z,102116.38
2022-12-28T18:22:49.114Z,102113.06
2022-12-28T18:25:19.543Z,102111.38
2022-12-28T18:27:49.664Z,102112.53
2022-12-28T18:30:22.636Z,102119.28
2022-12-28T18:32:53.080Z,102118.75
2022-12-28T18:35:25.724Z,102109.88
2022-12-28T18:37:55.448Z,102118.56
2022-12-28T18:40:26.169Z,102115.25
2022-12-28T18:42:57.912Z,102109.97
2022-12-28T18:45:30.411Z,102112.25
2022-12-28T18:48:00.783Z,102108.94
2022-12-28T18:50:31.053Z,102116.19
2022-12-28T18:53:01.129Z,102112.91
2022-12-28T18:55:31.545Z,102109.25
2022-12-28T18:58:01.591Z,102111.25
2022-12-28T19:00:33.207Z,102119.94
2022-12-28T19:03:03.631Z,102118.28
2022-12-28T19:05:34.092Z,102119.41
2022-12-28T19:08:04.152Z,102116.09
2022-12-28T19:10:34.080Z,102108.84
2022-12-28T19:13:04.467Z,102113.91
2022-12-28T19:15:37.143Z,102115.91
2022-12-28T19:18:07.638Z,102112.56
2022-12-28T19:20:37.660Z,102109.78
2022-12-28T19:23:07.608Z,102114.03
2022-12-28T19:25:39.162Z,102112.38
2022-12-28T19:28:10.359Z,102109.88
2022-12-28T19:30:42.800Z,102112.66
2022-12-28T19:33:12.970Z,102111.34
2022-12-28T19:35:44.223Z,102114.47
2022-12-28T19:38:14.518Z,102108.00
2022-12-28T19:40:45.167Z,102109.16
2022-12-28T19:43:15.228Z,102105.53
2022-12-28T19:45:47.431Z,102115.88
2022-12-28T19:48:17.650Z,102115.06
2022-12-28T19:50:47.684Z,102104.19
2022-12-28T19:53:17.721Z,102117.34
2022-12-28T19:55:47.971Z,102103.69
2022-12-28T19:58:19.698Z,102113.22
2022-12-28T20:00:52.218Z,102110.41
2022-12-28T20:03:22.727Z,102114.34
2022-12-28T20:05:52.857Z,102113.00
2022-12-28T20:08:23.225Z,102111.34
2022-12-28T20:10:58.918Z,102108.56
2022-12-28T20:13:29.360Z,102112.81
2022-12-28T20:16:01.853Z,102111.69
2022-12-28T20:18:32.412Z,102110.31
2022-12-28T20:21:21.430Z,102109.78
2022-12-28T20:23:52.928Z,102100.91
2022-12-28T20:26:27.457Z,102105.66
2022-12-28T20:28:59.238Z,102107.63
2022-12-28T20:31:31.933Z,102103.16
2022-12-28T20:34:02.181Z,102101.84
2022-12-28T20:36:34.282Z,102098.19
2022-12-28T20:39:04.970Z,102102.44
2022-12-28T20:41:52.605Z,102101.63
2022-12-28T20:44:26.838Z,102098.31
2022-12-28T20:47:00.384Z,102097.47
2022-12-28T20:49:32.141Z,102096.66
2022-12-28T20:52:02.150Z,102095.81
2022-12-28T20:54:32.720Z,102094.13
2022-12-28T20:57:03.894Z,102099.72
2022-12-28T20:59:34.487Z,102098.91
2022-12-28T21:02:06.556Z,102089.72
2022-12-28T21:04:37.237Z,102094.78
2022-12-28T21:07:06.929Z,102092.00
2022-12-28T21:09:37.851Z,102083.88
2022-12-28T21:12:08.507Z,102085.88
2022-12-28T21:14:38.695Z,102083.38
2022-12-28T21:17:10.712Z,102082.53
2022-12-28T21:19:40.581Z,102087.31
2022-12-28T21:22:10.945Z,102088.47
2022-12-28T21:24:41.232Z,102078.41
2022-12-28T21:27:11.587Z,102084.31
2022-12-28T21:29:41.617Z,102083.47
2022-12-28T21:32:13.480Z,102074.28
2022-12-28T21:34:44.047Z,102083.81
2022-12-28T21:37:31.119Z,102085.75
2022-12-28T21:40:01.533Z,102069.59
2022-12-28T21:42:31.767Z,102069.09
2022-12-28T21:45:01.527Z,102072.69
2022-12-28T21:47:36.263Z,102070.22
2022-12-28T21:50:12.134Z,102067.41
2022-12-28T21:52:42.485Z,102065.25
2022-12-28T21:55:29.872Z,102062.44
2022-12-28T21:58:01.458Z,102058.31
2022-12-28T22:00:48.554Z,102065.03
2022-12-28T22:03:37.439Z,102062.56
2022-12-28T22:06:09.695Z,102060.34
2022-12-28T22:08:56.234Z,102053.94
2022-12-28T22:11:43.329Z,102063.47
2022-12-28T22:14:12.998Z,102061.28
2022-12-28T22:16:43.147Z,102059.28
2022-12-28T22:19:15.629Z,102061.28
2022-12-28T22:21:45.759Z,102055.16
2022-12-28T22:24:16.190Z,102056.28
2022-12-28T22:26:46.805Z,102062.19
2022-12-28T22:29:17.537Z,102051.00
2022-12-28T22:31:47.992Z,102047.69
2022-12-28T22:34:20.615Z,102060.00
2022-12-28T22:36:51.000Z,102047.50
2022-12-28T22:41:50.681Z,102048.09
2022-12-28T22:44:20.499Z,102050.06
2022-12-28T22:46:50.714Z,102048.75
2022-12-28T22:49:23.044Z,102047.06
2022-12-28T22:51:52.854Z,102051.00
2022-12-28T22:54:23.407Z,102042.94
2022-12-28T22:56:54.289Z,102044.88
2022-12-28T22:59:24.645Z,102044.38
2022-12-28T23:01:56.491Z,102049.13
2022-12-28T23:04:29.319Z,102035.44
2022-12-28T23:07:03.658Z,102038.56
2022-12-28T23:09:34.530Z,102036.09
2022-12-28T23:12:05.189Z,102040.84
2022-12-28T23:14:51.943Z,102036.69
2022-12-28T23:17:22.271Z,102038.97
2022-12-28T23:20:11.614Z,102038.97
2022-12-28T23:22:58.651Z,102046.00
2022-12-28T23:25:45.906Z,102036.81
2022-12-28T23:28:18.570Z,102041.88
2022-12-28T23:30:52.057Z,102043.81
2022-12-28T23:33:22.443Z,102040.81
2022-12-28T23:35:54.718Z,102049.53
2022-12-28T23:38:24.781Z,102037.81
2022-12-28T23:41:15.135Z,102041.75
2022-12-28T23:43:45.009Z,102039.25
2022-12-28T23:46:15.438Z,102033.69
2022-12-28T23:48:45.472Z,102028.38
2022-12-28T23:51:18.330Z,102039.06
2022-12-28T23:53:48.844Z,102038.53
2022-12-28T23:56:19.130Z,102036.53
2022-12-28T23:58:52.515Z,102038.53
